Time;durP1;ratioP1;P1;durP2;ratioP2;P2;SDS_P1;SDS_P2;PMS_P1;PMS_P2;Temp;Humidity;BMP_temperature;BMP_pressure;BME280_temperature;BME280_humidity;BME280_pressure;Samples;Min_cycle;Max_cycle;Signal;HPM_P1;HPM_P2
2022/10/13 00:00:47;;;;;;;;;;;;;;;8.09;82.60;101215.59;1469210;89;20842;-80
2022/10/13 00:03:15;;;;;;;;;;;;;;;8.06;83.00;101217.14;1470841;89;20447;-80
2022/10/13 00:05:44;;;;;;;;;;;;;;;8.02;83.27;101223.58;1480592;87;20318;-80
2022/10/13 00:08:12;;;;;;;;;;;;;;;7.96;83.38;101220.91;1487346;87;20304;-80
2022/10/13 00:10:40;;;;;;;;;;;;;;;7.96;83.20;101218.27;1487891;87;20371;-81
2022/10/13 00:13:08;;;;;;;;;;;;;;;7.96;83.59;101220.91;1495536;87;20415;-80
2022/10/13 00:15:43;;;;;;;;;;;;;;;7.91;83.47;101225.21;1491124;87;20416;-81
2022/10/13 00:18:10;;;;;;;;;;;;;;;7.87;83.25;101217.14;1493181;87;20386;-81
2022/10/13 00:20:43;;;;;;;;;;;;;;;7.83;83.25;101222.77;1485085;87;20304;-80
2022/10/13 00:23:10;;;;;;;;;;;;;;;7.79;83.39;101217.33;1488162;87;20296;-80
2022/10/13 00:25:42;;;;;;;;;;;;;;;7.75;83.64;101213.25;1487208;87;20304;-82
2022/10/13 00:28:10;;;;;;;;;;;;;;;7.72;83.83;101214.78;1492662;87;20846;-81
2022/10/13 00:30:37;;;;;;;;;;;;;;;7.69;83.68;101206.62;1493816;87;21162;-81
2022/10/13 00:33:05;;;;;;;;;;;;;;;7.65;83.57;101207.33;1486374;87;20295;-81
2022/10/13 00:35:33;;;;;;;;;;;;;;;7.62;84.21;101210.17;1493968;87;20310;-80
2022/10/13 00:37:59;;;;;;;;;;;;;;;7.56;83.64;101205.80;1482322;86;20282;-80
2022/10/13 00:40:26;;;;;;;;;;;;;;;7.55;83.71;101208.08;1495606;86;20376;-80
2022/10/13 00:42:53;;;;;;;;;;;;;;;7.52;84.36;101206.50;1496473;86;20252;-80
2022/10/13 00:45:28;;;;;;;;;;;;;;;7.45;84.45;101203.47;1497739;87;20422;-81
2022/10/13 00:47:58;;;;;;;;;;;;;;;7.39;84.47;101196.00;1487717;87;20319;-81
2022/10/13 00:50:37;;;;;;;;;;;;;;;7.37;84.58;101199.69;1491948;87;20237;-81
2022/10/13 00:53:05;;;;;;;;;;;;;;;7.35;84.37;101193.20;1487770;87;20287;-80
2022/10/13 00:55:35;;;;;;;;;;;;;;;7.30;85.51;101197.11;1486086;87;20846;-81
2022/10/13 00:58:04;;;;;;;;;;;;;;;7.22;85.57;101201.13;1491664;87;20238;-81
2022/10/13 01:00:32;;;;;;;;;;;;;;;7.15;86.12;101193.28;1482312;87;20250;-81
2022/10/13 01:03:00;;;;;;;;;;;;;;;7.10;86.45;101187.48;1489385;87;20414;-80
2022/10/13 01:05:28;;;;;;;;;;;;;;;7.09;85.68;101191.08;1487955;87;20541;-82
2022/10/13 01:07:56;;;;;;;;;;;;;;;7.13;85.35;101195.17;1487853;87;20287;-82
2022/10/13 01:10:35;;;;;;;;;;;;;;;7.14;85.17;101196.87;1488682;87;20236;-82
2022/10/13 01:13:21;;;;;;;;;;;;;;;7.16;85.16;101192.80;1486272;87;20286;-82
2022/10/13 01:16:11;;;;;;;;;;;;;;;7.15;85.54;101194.59;1482377;87;21215;-78
2022/10/13 01:18:48;;;;;;;;;;;;;;;7.07;84.89;101198.23;1482343;87;20267;-79
2022/10/13 01:21:21;;;;;;;;;;;;;;;7.07;85.08;101195.59;1494879;87;20311;-80
2022/10/13 01:23:52;;;;;;;;;;;;;;;7.05;85.68;101192.25;1482125;87;20287;-80
2022/10/13 01:26:43;;;;;;;;;;;;;;;7.00;85.00;101187.29;1486938;87;20378;-82
2022/10/13 01:29:14;;;;;;;;;;;;;;;6.94;84.91;101191.66;1474151;87;20362;-82
2022/10/13 01:31:47;;;;;;;;;;;;;;;6.87;85.78;101186.92;1488008;87;20394;-81
2022/10/13 01:34:32;;;;;;;;;;;;;;;6.83;85.07;101185.45;1494607;87;20309;-81
2022/10/13 01:37:14;;;;;;;;;;;;;;;6.76;85.17;101191.14;1485536;87;20302;-81
2022/10/13 01:39:57;;;;;;;;;;;;;;;6.73;85.02;101189.17;1482231;87;20356;-82
2022/10/13 01:42:27;;;;;;;;;;;;;;;6.70;85.16;101181.48;1477355;87;20315;-80
2022/10/13 01:45:00;;;;;;;;;;;;;;;6.65;85.00;101177.03;1489086;87;20253;-81
2022/10/13 01:47:30;;;;;;;;;;;;;;;6.63;85.01;101181.07;1496516;87;20892;-81
2022/10/13 01:49:58;;;;;;;;;;;;;;;6.65;85.65;101181.81;1502076;87;20296;-80
2022/10/13 01:52:27;;;;;;;;;;;;;;;6.69;85.82;101177.19;1496879;87;20281;-81
2022/10/13 01:54:54;;;;;;;;;;;;;;;6.68;85.89;101182.09;1492270;87;20368;-80
2022/10/13 01:57:36;;;;;;;;;;;;;;;6.64;85.58;101181.43;1486440;87;20365;-82
2022/10/13 02:00:09;;;;;;;;;;;;;;;6.63;85.92;101182.38;1489685;87;20415;-82
2022/10/13 02:02:49;;;;;;;;;;;;;;;6.60;85.14;101181.28;1494151;87;20437;-82
2022/10/13 02:05:48;;;;;;;;;;;;;;;6.58;84.99;101179.22;1483593;87;20346;-81
2022/10/13 02:08:24;;;;;;;;;;;;;;;6.55;84.70;101175.48;1492387;87;21150;-82
2022/10/13 02:10:57;;;;;;;;;;;;;;;6.51;84.39;101174.02;1496345;87;20289;-83
2022/10/13 02:13:27;;;;;;;;;;;;;;;6.44;84.33;101176.19;1490461;87;20275;-81
2022/10/13 02:15:56;;;;;;;;;;;;;;;6.41;84.65;101173.77;1482703;87;20244;-82
2022/10/13 02:18:26;;;;;;;;;;;;;;;6.39;84.86;101174.36;1497718;87;20303;-82
2022/10/13 02:20:53;;;;;;;;;;;;;;;6.37;85.34;101178.04;1492718;87;20395;-83
2022/10/13 02:23:21;;;;;;;;;;;;;;;6.39;84.88;101177.00;1486484;87;20297;-83
2022/10/13 02:25:49;;;;;;;;;;;;;;;6.48;85.26;101174.22;1493413;87;20383;-82
2022/10/13 02:28:17;;;;;;;;;;;;;;;6.49;85.12;101168.84;1486518;87;20853;-81
2022/10/13 02:30:45;;;;;;;;;;;;;;;6.49;85.07;101170.64;1486145;87;20378;-80
2022/10/13 02:33:13;;;;;;;;;;;;;;;6.53;84.96;101171.66;1489939;87;20342;-81
2022/10/13 02:35:41;;;;;;;;;;;;;;;6.55;85.21;101169.74;1488919;87;20728;-81
2022/10/13 02:38:08;;;;;;;;;;;;;;;6.57;85.41;101164.39;1494247;86;20280;-80
2022/10/13 02:40:35;;;;;;;;;;;;;;;6.53;85.26;101157.64;1493091;87;20260;-81
2022/10/13 02:43:02;;;;;;;;;;;;;;;6.48;84.77;101159.76;1490192;87;20289;-81
2022/10/13 02:45:29;;;;;;;;;;;;;;;6.44;84.64;101162.20;1489577;87;20277;-81
2022/10/13 02:47:56;;;;;;;;;;;;;;;6.37;85.56;101158.32;1494646;87;20810;-80
2022/10/13 02:50:23;;;;;;;;;;;;;;;6.29;85.20;101155.71;1487280;87;20268;-81
2022/10/13 02:52:50;;;;;;;;;;;;;;;6.23;84.96;101157.44;1485936;87;20296;-81
2022/10/13 02:55:17;;;;;;;;;;;;;;;6.21;85.49;101159.32;1494538;87;20456;-82
2022/10/13 02:57:45;;;;;;;;;;;;;;;6.20;85.66;101157.64;1493796;87;20253;-81
2022/10/13 03:00:13;;;;;;;;;;;;;;;6.17;86.88;101160.48;1489867;87;20282;-81
2022/10/13 03:02:41;;;;;;;;;;;;;;;6.15;86.22;101158.89;1486061;87;20906;-81
2022/10/13 03:05:08;;;;;;;;;;;;;;;6.15;86.49;101163.67;1497480;87;20304;-81
2022/10/13 03:07:36;;;;;;;;;;;;;;;6.13;86.63;101162.95;1487125;87;20541;-81
2022/10/13 03:10:03;;;;;;;;;;;;;;;6.06;86.05;101156.39;1492679;87;20490;-81
2022/10/13 03:12:30;;;;;;;;;;;;;;;6.02;85.92;101161.50;1497169;87;20289;-80
2022/10/13 03:14:57;;;;;;;;;;;;;;;5.97;85.94;101163.09;1485162;87;20314;-82
2022/10/13 03:17:24;;;;;;;;;;;;;;;5.92;86.38;101165.62;1492950;87;20245;-82
2022/10/13 03:19:51;;;;;;;;;;;;;;;5.89;87.08;101168.80;1496479;87;20929;-81
2022/10/13 03:22:18;;;;;;;;;;;;;;;5.89;86.17;101164.87;1492260;87;20289;-81
2022/10/13 03:24:45;;;;;;;;;;;;;;;5.93;86.37;101168.19;1490287;87;20319;-80
2022/10/13 03:27:12;;;;;;;;;;;;;;;5.94;86.32;101163.77;1489486;87;20281;-82
2022/10/13 03:29:39;;;;;;;;;;;;;;;5.96;86.20;101176.35;1493050;87;20774;-82
2022/10/13 03:32:06;;;;;;;;;;;;;;;5.97;86.43;101169.66;1496708;87;20304;-82
2022/10/13 03:34:33;;;;;;;;;;;;;;;5.97;86.33;101169.66;1494001;87;20311;-80
2022/10/13 03:36:59;;;;;;;;;;;;;;;5.92;85.90;101169.56;1487152;87;20557;-79
2022/10/13 03:39:26;;;;;;;;;;;;;;;5.89;86.63;101172.75;1476242;87;20217;-80
2022/10/13 03:41:53;;;;;;;;;;;;;;;5.86;86.23;101171.64;1465874;89;20218;-79
2022/10/13 03:44:20;;;;;;;;;;;;;;;5.84;86.24;101171.36;1471720;89;20857;-79
2022/10/13 03:46:47;;;;;;;;;;;;;;;5.78;85.94;101170.00;1479205;87;20377;-79
2022/10/13 03:49:14;;;;;;;;;;;;;;;5.74;86.08;101163.23;1478621;87;20342;-79
2022/10/13 03:51:40;;;;;;;;;;;;;;;5.70;86.44;101163.08;1467244;87;20818;-80
2022/10/13 03:54:12;;;;;;;;;;;;;;;5.70;86.21;101167.02;1498018;87;20340;-79
2022/10/13 03:56:41;;;;;;;;;;;;;;;5.67;86.11;101159.34;1487057;87;20229;-80
2022/10/13 03:59:11;;;;;;;;;;;;;;;5.69;86.70;101158.74;1485136;87;20339;-79
2022/10/13 04:01:38;;;;;;;;;;;;;;;5.71;86.45;101162.13;1479313;87;20286;-80
2022/10/13 04:04:06;;;;;;;;;;;;;;;5.74;86.57;101160.61;1494593;87;20930;-81
2022/10/13 04:06:33;;;;;;;;;;;;;;;5.73;85.94;101159.41;1487816;87;20905;-85
2022/10/13 04:09:00;;;;;;;;;;;;;;;5.68;85.58;101161.48;1487697;87;20332;-78
2022/10/13 04:11:27;;;;;;;;;;;;;;;5.62;85.46;101161.41;1495065;87;20260;-78
2022/10/13 04:13:56;;;;;;;;;;;;;;;5.55;85.45;101161.41;1492610;87;20825;-80
2022/10/13 04:16:26;;;;;;;;;;;;;;;5.51;85.52;101159.45;1496523;87;20795;-78
2022/10/13 04:18:56;;;;;;;;;;;;;;;5.49;85.89;101157.86;1493359;87;20560;-79
2022/10/13 04:21:23;;;;;;;;;;;;;;;5.49;86.04;101161.80;1496020;87;20856;-79
2022/10/13 04:23:52;;;;;;;;;;;;;;;5.51;86.22;101167.80;1487175;87;20282;-79
2022/10/13 04:26:21;;;;;;;;;;;;;;;5.50;86.49;101164.81;1494488;87;20261;-78
2022/10/13 04:28:50;;;;;;;;;;;;;;;5.51;86.35;101163.87;1484900;87;20343;-79
2022/10/13 04:31:18;;;;;;;;;;;;;;;5.56;86.37;101165.73;1489417;87;20600;-77
2022/10/13 04:33:45;;;;;;;;;;;;;;;5.64;86.73;101162.16;1492215;87;20289;-78
2022/10/13 04:36:13;;;;;;;;;;;;;;;5.64;85.92;101166.94;1488238;87;20298;-79
2022/10/13 04:38:41;;;;;;;;;;;;;;;5.60;85.31;101161.48;1489052;87;20274;-78
2022/10/13 04:41:11;;;;;;;;;;;;;;;5.59;85.09;101164.23;1483140;87;20349;-80
2022/10/13 04:43:38;;;;;;;;;;;;;;;5.57;85.57;101166.09;1480797;87;20880;-79
2022/10/13 04:46:08;;;;;;;;;;;;;;;5.52;85.52;101161.60;1495945;87;20307;-79
2022/10/13 04:48:35;;;;;;;;;;;;;;;5.48;85.50;101163.59;1499508;87;20208;-78
2022/10/13 04:51:14;;;;;;;;;;;;;;;5.47;85.54;101165.85;1505625;87;20759;-78
2022/10/13 04:53:41;;;;;;;;;;;;;;;5.47;85.87;101165.85;1482491;87;20965;-80
2022/10/13 04:56:11;;;;;;;;;;;;;;;5.45;86.03;101168.19;1496856;87;20401;-79
2022/10/13 04:58:39;;;;;;;;;;;;;;;5.43;85.92;101164.34;1486308;87;20612;-85
2022/10/13 05:01:18;;;;;;;;;;;;;;;5.46;87.24;101168.55;1487783;87;20424;-86
2022/10/13 05:03:44;;;;;;;;;;;;;;;5.42;86.93;101167.91;1481565;87;20663;-88
2022/10/13 05:06:17;;;;;;;;;;;;;;;5.44;86.99;101168.67;1465040;87;20552;-88
2022/10/13 05:08:43;;;;;;;;;;;;;;;5.48;86.57;101167.52;1485013;87;20378;-87
2022/10/13 05:11:10;;;;;;;;;;;;;;;5.50;86.91;101169.59;1484870;87;20352;-88
2022/10/13 05:13:40;;;;;;;;;;;;;;;5.52;86.74;101166.86;1490518;87;20325;-89
2022/10/13 05:16:10;;;;;;;;;;;;;;;5.53;86.98;101164.62;1491440;87;20804;-88
2022/10/13 05:18:36;;;;;;;;;;;;;;;5.54;86.64;101174.17;1492633;87;20304;-87
2022/10/13 05:21:12;;;;;;;;;;;;;;;5.57;86.69;101172.19;1489780;87;20334;-87
2022/10/13 05:23:40;;;;;;;;;;;;;;;5.62;87.01;101178.00;1497355;87;20318;-83
2022/10/13 05:26:09;;;;;;;;;;;;;;;5.64;87.62;101176.60;1490139;87;20364;-88
2022/10/13 05:28:37;;;;;;;;;;;;;;;5.66;87.77;101173.39;1488718;87;20379;-89
2022/10/13 05:31:15;;;;;;;;;;;;;;;5.68;87.52;101176.77;1494444;87;20864;-87
2022/10/13 05:33:43;;;;;;;;;;;;;;;5.70;87.73;101176.20;1491072;87;20416;-88
2022/10/13 05:36:13;;;;;;;;;;;;;;;5.73;89.06;101174.70;1480052;87;20295;-88
2022/10/13 05:38:40;;;;;;;;;;;;;;;5.74;89.40;101175.53;1482528;87;20823;-88
2022/10/13 05:41:09;;;;;;;;;;;;;;;5.75;90.45;101175.42;1489714;87;20846;-87
2022/10/13 05:43:40;;;;;;;;;;;;;;;5.76;90.15;101178.44;1483152;87;20265;-88
2022/10/13 05:46:07;;;;;;;;;;;;;;;5.80;89.48;101178.60;1489790;87;20377;-88
2022/10/13 05:48:35;;;;;;;;;;;;;;;5.85;90.12;101183.09;1487027;87;20280;-87
2022/10/13 05:51:07;;;;;;;;;;;;;;;5.92;89.54;101185.33;1481964;87;20280;-89
2022/10/13 05:53:36;;;;;;;;;;;;;;;6.01;89.65;101188.70;1480949;87;20444;-88
2022/10/13 05:56:06;;;;;;;;;;;;;;;6.10;89.93;101187.64;1459578;87;20342;-88
2022/10/13 05:58:36;;;;;;;;;;;;;;;6.19;89.56;101194.08;1485237;87;20302;-88
2022/10/13 06:01:05;;;;;;;;;;;;;;;6.26;88.75;101194.04;1494321;87;20809;-89
2022/10/13 06:03:33;;;;;;;;;;;;;;;6.32;88.51;101200.20;1481765;87;20414;-89
2022/10/13 06:06:00;;;;;;;;;;;;;;;6.39;88.10;101203.29;1483599;87;20831;-88
2022/10/13 06:08:28;;;;;;;;;;;;;;;6.51;88.47;101200.31;1463390;87;20506;-88
2022/10/13 06:10:55;;;;;;;;;;;;;;;6.57;88.37;101203.84;1493343;87;20252;-89
2022/10/13 06:13:22;;;;;;;;;;;;;;;6.67;88.32;101208.84;1484896;87;20310;-88
2022/10/13 06:15:49;;;;;;;;;;;;;;;6.78;88.25;101211.59;1487899;87;20838;-89
2022/10/13 06:18:16;;;;;;;;;;;;;;;6.89;88.15;101207.40;1487449;87;20280;-88
2022/10/13 06:20:43;;;;;;;;;;;;;;;7.01;88.30;101209.19;1486879;87;20279;-89
2022/10/13 06:23:10;;;;;;;;;;;;;;;7.11;88.25;101206.30;1483324;87;20876;-90
2022/10/13 06:25:37;;;;;;;;;;;;;;;7.24;88.10;101211.06;1488575;87;20340;-90
2022/10/13 06:28:04;;;;;;;;;;;;;;;7.37;88.27;101214.17;1487159;87;20273;-89
2022/10/13 06:30:31;;;;;;;;;;;;;;;7.48;87.75;101210.77;1490629;87;20402;-90
2022/10/13 06:32:58;;;;;;;;;;;;;;;7.58;87.55;101215.28;1486600;87;21011;-88
2022/10/13 06:35:25;;;;;;;;;;;;;;;7.68;87.80;101215.00;1489763;87;20450;-82
2022/10/13 06:37:52;;;;;;;;;;;;;;;7.80;87.50;101215.08;1485825;87;20214;-87
2022/10/13 06:40:19;;;;;;;;;;;;;;;7.98;87.59;101207.63;1490235;87;20295;-88
2022/10/13 06:42:50;;;;;;;;;;;;;;;8.18;87.59;101206.17;1483834;87;20310;-86
2022/10/13 06:45:18;;;;;;;;;;;;;;;8.36;86.50;101211.39;1482292;87;20281;-88
2022/10/13 06:47:45;;;;;;;;;;;;;;;8.46;84.07;101213.75;1482662;87;20295;-88
2022/10/13 06:50:12;;;;;;;;;;;;;;;8.52;82.81;101214.60;1483193;87;20290;-88
2022/10/13 06:52:39;;;;;;;;;;;;;;;8.68;83.61;101218.72;1489516;87;20282;-88
2022/10/13 06:55:07;;;;;;;;;;;;;;;8.88;84.24;101222.00;1489038;87;20429;-88
2022/10/13 06:57:33;;;;;;;;;;;;;;;9.12;84.21;101214.46;1493048;87;20825;-87
2022/10/13 07:00:00;;;;;;;;;;;;;;;9.26;82.99;101211.59;1493665;87;20416;-88
2022/10/13 07:02:27;;;;;;;;;;;;;;;9.44;82.48;101215.45;1491373;87;20282;-88
2022/10/13 07:04:54;;;;;;;;;;;;;;;9.53;81.14;101201.16;1492532;87;20905;-86
2022/10/13 07:07:21;;;;;;;;;;;;;;;9.56;80.77;101203.06;1464878;87;20833;-88
2022/10/13 07:09:48;;;;;;;;;;;;;;;9.68;81.12;101203.39;1498052;87;20282;-84
2022/10/13 07:12:15;;;;;;;;;;;;;;;9.79;80.70;101205.19;1493628;87;20318;-86
2022/10/13 07:14:42;;;;;;;;;;;;;;;9.94;79.61;101206.58;1488799;87;20267;-85
2022/10/13 07:17:09;;;;;;;;;;;;;;;10.05;79.62;101200.43;1486971;87;20312;-86
2022/10/13 07:19:36;;;;;;;;;;;;;;;10.22;78.79;101212.28;1486090;87;20708;-86
2022/10/13 07:22:02;;;;;;;;;;;;;;;10.39;79.12;101207.78;1503144;87;20259;-85
2022/10/13 07:24:29;;;;;;;;;;;;;;;10.60;79.31;101206.95;1493440;87;20350;-87
2022/10/13 07:26:56;;;;;;;;;;;;;;;10.79;77.78;101211.06;1492335;87;20313;-86
2022/10/13 07:29:23;;;;;;;;;;;;;;;10.93;77.39;101206.38;1492912;87;20312;-86
2022/10/13 07:31:50;;;;;;;;;;;;;;;11.06;76.82;101209.67;1487823;87;20304;-86
2022/10/13 07:34:17;;;;;;;;;;;;;;;11.27;77.69;101209.13;1484273;87;20854;-85
2022/10/13 07:36:43;;;;;;;;;;;;;;;11.48;77.11;101215.72;1493123;87;20268;-87
2022/10/13 07:39:10;;;;;;;;;;;;;;;11.62;72.24;101211.83;1488068;87;20290;-86
2022/10/13 07:41:37;;;;;;;;;;;;;;;11.79;73.86;101212.16;1497814;87;20283;-87
2022/10/13 07:44:04;;;;;;;;;;;;;;;11.97;72.28;101213.23;1486475;87;20288;-86
2022/10/13 07:46:31;;;;;;;;;;;;;;;12.21;72.40;101206.67;1489152;87;20415;-86
2022/10/13 07:48:58;;;;;;;;;;;;;;;12.21;68.92;101207.52;1489726;87;20374;-86
2022/10/13 07:51:24;;;;;;;;;;;;;;;12.40;70.58;101210.67;1487325;87;20558;-86
2022/10/13 07:53:51;;;;;;;;;;;;;;;12.56;68.76;101206.09;1493750;87;20259;-86
2022/10/13 07:56:18;;;;;;;;;;;;;;;12.76;67.97;101205.09;1494360;87;20274;-84
2022/10/13 07:58:46;;;;;;;;;;;;;;;12.83;66.04;101205.34;1486605;87;20816;-86
2022/10/13 08:01:14;;;;;;;;;;;;;;;12.96;66.54;101208.53;1492687;87;20765;-86
2022/10/13 08:03:41;;;;;;;;;;;;;;;12.99;64.71;101198.95;1468210;87;20356;-85
2022/10/13 08:06:09;;;;;;;;;;;;;;;13.12;65.66;101194.66;1494578;87;20237;-85
2022/10/13 08:08:36;;;;;;;;;;;;;;;13.22;65.42;101195.94;1497013;87;20305;-84
2022/10/13 08:11:05;;;;;;;;;;;;;;;13.25;65.44;101192.52;1491357;87;20275;-85
2022/10/13 08:13:32;;;;;;;;;;;;;;;13.33;63.10;101196.28;1499177;87;20410;-85
2022/10/13 08:16:01;;;;;;;;;;;;;;;13.42;63.14;101195.39;1496206;87;20833;-86
2022/10/13 08:18:29;;;;;;;;;;;;;;;13.57;63.54;101182.44;1473277;87;20297;-85
2022/10/13 08:21:01;;;;;;;;;;;;;;;13.79;66.00;101182.02;1490931;87;20898;-85
2022/10/13 08:23:29;;;;;;;;;;;;;;;13.97;63.81;101184.70;1495898;87;20394;-85
2022/10/13 08:25:56;;;;;;;;;;;;;;;14.08;63.04;101180.48;1469278;87;20296;-84
2022/10/13 08:28:25;;;;;;;;;;;;;;;14.21;63.38;101178.75;1492533;87;20809;-85
2022/10/13 08:30:52;;;;;;;;;;;;;;;14.22;60.74;101173.80;1489792;87;20268;-82
2022/10/13 08:33:19;;;;;;;;;;;;;;;14.24;60.05;101174.45;1496933;87;20282;-85
2022/10/13 08:35:46;;;;;;;;;;;;;;;14.37;60.68;101169.58;1482961;87;20817;-85
2022/10/13 08:38:13;;;;;;;;;;;;;;;14.52;61.14;101170.39;1486466;87;20471;-85
2022/10/13 08:40:42;;;;;;;;;;;;;;;14.69;62.96;101168.69;1488505;87;20275;-86
2022/10/13 08:43:12;;;;;;;;;;;;;;;14.81;59.96;101170.92;1493760;87;20295;-85
2022/10/13 08:45:39;;;;;;;;;;;;;;;14.89;58.89;101161.64;1484682;87;20311;-84
2022/10/13 08:48:10;;;;;;;;;;;;;;;15.09;61.79;101166.75;1480424;88;20854;-84
2022/10/13 08:50:40;;;;;;;;;;;;;;;15.23;61.55;101164.82;1482321;88;20325;-85
2022/10/13 08:53:16;;;;;;;;;;;;;;;15.32;58.41;101163.86;1495426;86;20280;-84
2022/10/13 08:55:46;;;;;;;;;;;;;;;15.40;59.43;101162.23;1486685;87;20342;-87
2022/10/13 08:58:25;;;;;;;;;;;;;;;15.55;59.48;101165.94;1492552;87;20919;-84
2022/10/13 09:01:11;;;;;;;;;;;;;;;15.76;59.47;101166.85;1487781;87;20397;-86
2022/10/13 09:03:54;;;;;;;;;;;;;;;16.01;59.63;101158.39;1485444;87;20302;-83
2022/10/13 09:06:27;;;;;;;;;;;;;;;16.38;59.06;101159.75;1490499;87;20569;-85
2022/10/13 09:09:04;;;;;;;;;;;;;;;16.59;54.67;101165.39;1481501;87;20855;-85
2022/10/13 09:11:34;;;;;;;;;;;;;;;16.98;53.51;101162.53;1481764;87;20304;-85
2022/10/13 09:14:04;;;;;;;;;;;;;;;17.49;52.86;101154.94;1495019;87;20223;-86
2022/10/13 09:16:40;;;;;;;;;;;;;;;18.02;50.13;101158.17;1480257;87;20825;-87
2022/10/13 09:19:19;;;;;;;;;;;;;;;18.44;49.35;101151.47;1488100;87;20297;-86
2022/10/13 09:21:48;;;;;;;;;;;;;;;19.11;49.46;101152.48;1491179;87;20238;-86
2022/10/13 09:24:17;;;;;;;;;;;;;;;19.52;46.79;101151.95;1489773;87;20348;-84
2022/10/13 09:26:47;;;;;;;;;;;;;;;19.91;44.65;101152.08;1494535;87;20399;-86
2022/10/13 09:29:17;;;;;;;;;;;;;;;20.35;43.43;101150.53;1488171;87;20289;-86
2022/10/13 09:31:44;;;;;;;;;;;;;;;20.64;44.11;101157.61;1494909;87;20311;-85
2022/10/13 09:34:22;;;;;;;;;;;;;;;20.83;45.08;101153.89;1494567;87;20283;-87
2022/10/13 09:36:58;;;;;;;;;;;;;;;20.99;42.34;101149.55;1488911;87;20305;-86
2022/10/13 09:39:25;;;;;;;;;;;;;;;21.17;41.98;101153.88;1493297;87;20289;-87
2022/10/13 09:41:54;;;;;;;;;;;;;;;21.43;43.68;101151.54;1489143;87;20319;-84
2022/10/13 09:44:30;;;;;;;;;;;;;;;21.57;43.04;101144.64;1485137;87;20291;-87
2022/10/13 09:47:03;;;;;;;;;;;;;;;21.53;39.95;101147.44;1492093;87;20261;-86
2022/10/13 09:49:34;;;;;;;;;;;;;;;21.23;39.51;101147.38;1491138;87;20275;-86
2022/10/13 09:52:13;;;;;;;;;;;;;;;21.64;41.10;101144.69;1485024;87;20267;-87
2022/10/13 09:54:52;;;;;;;;;;;;;;;21.49;39.61;101150.23;1485852;87;20288;-86
2022/10/13 09:57:34;;;;;;;;;;;;;;;21.35;41.65;101144.45;1487612;87;20304;-86
2022/10/13 10:00:17;;;;;;;;;;;;;;;21.69;41.31;101140.02;1479190;87;20383;-86
2022/10/13 10:02:47;;;;;;;;;;;;;;;22.04;39.70;101133.45;1489112;87;20341;-85
2022/10/13 10:05:28;;;;;;;;;;;;;;;22.14;39.96;101134.91;1485526;87;20297;-86
2022/10/13 10:07:57;;;;;;;;;;;;;;;21.71;37.84;101125.31;1488235;87;20371;-86
2022/10/13 10:10:28;;;;;;;;;;;;;;;22.03;39.73;101122.88;1483917;87;20281;-87
2022/10/13 10:12:55;;;;;;;;;;;;;;;22.01;39.06;101129.83;1486839;87;20923;-87
2022/10/13 10:15:53;;;;;;;;;;;;;;;21.88;38.29;101123.06;1490726;87;20253;-85
2022/10/13 10:18:33;;;;;;;;;;;;;;;21.70;38.82;101117.45;1485031;87;20841;-85
2022/10/13 10:21:03;;;;;;;;;;;;;;;22.05;41.58;101121.63;1495450;87;20363;-86
2022/10/13 10:23:37;;;;;;;;;;;;;;;22.19;40.48;101121.16;1494102;87;20304;-85
2022/10/13 10:26:14;;;;;;;;;;;;;;;22.18;39.12;101110.56;1493084;87;20795;-86
2022/10/13 10:28:57;;;;;;;;;;;;;;;21.93;39.88;101113.03;1495142;87;20276;-87
2022/10/13 10:31:39;;;;;;;;;;;;;;;21.84;39.63;101109.18;1485747;87;20319;-87
2022/10/13 10:34:28;;;;;;;;;;;;;;;21.43;38.75;101098.51;1490363;87;20239;-88
2022/10/13 10:37:09;;;;;;;;;;;;;;;;;;1501272;87;20231;-86
2022/10/13 10:39:42;;;;;;;;;;;;;;;21.13;40.59;101093.94;1485564;87;20353;-86
2022/10/13 10:42:36;;;;;;;;;;;;;;;21.06;40.49;101095.75;1495758;87;20336;-87
2022/10/13 10:45:05;;;;;;;;;;;;;;;21.22;41.99;101095.41;1493078;87;20316;-87
2022/10/13 10:47:41;;;;;;;;;;;;;;;21.31;39.37;101080.73;1497767;87;21194;-87
2022/10/13 10:50:12;;;;;;;;;;;;;;;21.35;39.07;101078.49;1485496;87;20343;-86
2022/10/13 10:52:59;;;;;;;;;;;;;;;21.75;41.21;101075.89;1481796;88;20303;-87
2022/10/13 10:55:33;;;;;;;;;;;;;;;21.87;40.09;101075.61;1476684;87;20399;-86
2022/10/13 10:58:06;;;;;;;;;;;;;;;21.87;38.82;101064.83;1480728;88;20376;-87
2022/10/13 11:00:40;;;;;;;;;;;;;;;21.98;40.38;101067.41;1478661;88;20340;-87
2022/10/13 11:03:26;;;;;;;;;;;;;;;22.05;39.65;101062.86;1483091;88;20303;-86
2022/10/13 11:06:02;;;;;;;;;;;;;;;21.71;39.26;101063.35;1484651;88;20237;-86
2022/10/13 11:08:39;;;;;;;;;;;;;;;21.87;40.61;101060.79;1476879;88;20402;-86
2022/10/13 11:11:24;;;;;;;;;;;;;;;22.20;41.64;101058.62;1485583;88;20385;-87
2022/10/13 11:13:53;;;;;;;;;;;;;;;22.43;40.56;101048.73;1475715;88;20320;-87
2022/10/13 11:16:32;;;;;;;;;;;;;;;22.37;38.86;101047.71;1485203;88;20397;-87
2022/10/13 11:19:21;;;;;;;;;;;;;;;22.24;39.00;101045.02;1483918;88;20350;-87
2022/10/13 11:21:58;;;;;;;;;;;;;;;22.69;41.36;101040.56;1464726;88;20327;-88
2022/10/13 11:24:38;;;;;;;;;;;;;;;22.92;39.26;101031.97;1479136;87;20375;-87
2022/10/13 11:27:15;;;;;;;;;;;;;;;22.71;40.46;101026.87;1481036;88;20767;-86
2022/10/13 11:29:50;;;;;;;;;;;;;;;22.51;38.74;101030.98;1473707;88;20334;-85
2022/10/13 11:35:08;;;;;;;;;;;;;;;22.62;40.16;101018.72;1491979;87;20922;-86
2022/10/13 11:38:00;;;;;;;;;;;;;;;22.56;39.52;101016.84;1438243;91;20430;-86
2022/10/13 11:40:48;;;;;;;;;;;;;;;22.46;39.48;101018.12;1430125;91;20857;-87
2022/10/13 11:43:39;;;;;;;;;;;;;;;22.68;40.31;101004.38;1438981;91;20330;-86
2022/10/13 11:46:13;;;;;;;;;;;;;;;23.23;41.10;100999.34;1433742;91;20926;-87
2022/10/13 11:48:43;;;;;;;;;;;;;;;23.54;38.96;100990.94;1433102;91;20263;-87
2022/10/13 11:51:41;;;;;;;;;;;;;;;23.56;37.82;100986.13;1440838;91;20383;-86
2022/10/13 11:54:27;;;;;;;;;;;;;;;23.54;37.72;100986.89;1439127;91;20472;-87
2022/10/13 11:56:56;;;;;;;;;;;;;;;22.97;37.70;100983.61;1432476;91;20859;-86
2022/10/13 11:59:33;;;;;;;;;;;;;;;22.95;39.01;100972.19;1434051;91;20763;-86
2022/10/13 12:02:06;;;;;;;;;;;;;;;23.17;38.76;100976.74;1437189;91;20456;-86
2022/10/13 12:04:33;;;;;;;;;;;;;;;23.01;39.49;100975.08;1437614;91;20544;-85
2022/10/13 12:07:03;;;;;;;;;;;;;;;23.03;40.75;100972.47;1423868;91;21144;-83
2022/10/13 12:09:31;;;;;;;;;;;;;;;23.34;41.30;100973.00;1439857;91;20364;-87
2022/10/13 12:12:13;;;;;;;;;;;;;;;23.76;41.22;100973.30;1436594;91;20415;-86
2022/10/13 12:14:43;;;;;;;;;;;;;;;23.71;37.81;100971.81;1443931;88;20288;-87
2022/10/13 12:17:31;;;;;;;;;;;;;;;23.64;38.42;100972.34;1472875;88;20312;-86
2022/10/13 12:20:00;;;;;;;;;;;;;;;23.52;39.11;100964.66;1459649;89;20260;-88
2022/10/13 12:22:27;;;;;;;;;;;;;;;23.05;39.41;100967.69;1462534;88;20290;-87
2022/10/13 12:25:03;;;;;;;;;;;;;;;23.04;40.25;100966.54;1483290;86;20311;-88
2022/10/13 12:27:32;;;;;;;;;;;;;;;23.03;41.38;100963.02;1462453;89;20224;-90
2022/10/13 12:30:00;;;;;;;;;;;;;;;22.72;40.13;100961.08;1495000;86;20280;-89
2022/10/13 12:32:31;;;;;;;;;;;;;;;22.31;40.88;100962.27;1484535;88;20924;-89
2022/10/13 12:35:16;;;;;;;;;;;;;;;22.23;41.65;100962.50;1490838;87;20322;-89
2022/10/13 12:37:44;;;;;;;;;;;;;;;22.31;42.56;100959.58;1464952;89;20209;-91
2022/10/13 12:40:15;;;;;;;;;;;;;;;22.13;41.60;100956.70;1483305;88;20272;-90
2022/10/13 12:42:43;;;;;;;;;;;;;;;22.34;41.68;100957.80;1481495;88;20787;-92
2022/10/13 12:45:18;;;;;;;;;;;;;;;22.62;41.95;100952.63;1468519;88;20453;-90
2022/10/13 12:47:48;;;;;;;;;;;;;;;22.93;42.04;100953.17;1485933;88;20927;-91
2022/10/13 12:50:28;;;;;;;;;;;;;;;23.39;40.53;100943.97;1465931;88;20372;-91
2022/10/13 12:53:11;;;;;;;;;;;;;;;23.94;41.37;100944.16;1488101;87;21044;-92
2022/10/13 12:55:50;;;;;;;;;;;;;;;24.06;38.35;100932.07;1482677;87;20273;-90
2022/10/13 12:58:21;;;;;;;;;;;;;;;24.29;38.53;100934.92;1572445;87;20223;-87
2022/10/13 13:01:15;;;;;;;;;;;;;;;24.44;39.47;100935.09;1480944;87;20318;-90
2022/10/13 13:03:42;;;;;;;;;;;;;;;24.23;38.44;100935.83;1487458;87;20982;-87
2022/10/13 13:06:16;;;;;;;;;;;;;;;24.33;38.82;100932.05;1490616;87;20393;-89